Time;durP1;ratioP1;P1;durP2;ratioP2;P2;SDS_P1;SDS_P2;PMS_P1;PMS_P2;Temp;Humidity;BMP_temperature;BMP_pressure;BME280_temperature;BME280_humidity;BME280_pressure;Samples;Min_cycle;Max_cycle;Signal;HPM_P1;HPM_P2
2024/03/21 00:03:23;;;;;;;23.93;21.43;;;;;;;12.28;100.00;101743.56;6316006;27;20234;-69
2024/03/21 00:06:43;;;;;;;22.47;20.23;;;;;;;12.28;100.00;101737.28;6342439;22;20247;-67
2024/03/21 00:10:06;;;;;;;23.03;20.67;;;;;;;12.26;100.00;101726.59;6250538;28;20224;-67
2024/03/21 00:13:27;;;;;;;24.33;21.70;;;;;;;12.25;100.00;101732.09;6255525;28;20498;-68
2024/03/21 00:16:47;;;;;;;25.53;22.77;;;;;;;12.34;100.00;101725.97;6248846;28;20232;-68
2024/03/21 00:20:10;;;;;;;26.33;23.50;;;;;;;12.41;100.00;101728.00;6252243;28;20239;-67
2024/03/21 00:23:31;;;;;;;25.07;22.37;;;;;;;12.40;100.00;101712.78;6245138;28;20285;-67
2024/03/21 00:26:52;;;;;;;23.83;21.43;;;;;;;12.27;100.00;101717.47;6234607;28;20231;-68
2024/03/21 00:30:15;;;;;;;24.67;22.20;;;;;;;12.30;100.00;101700.16;6253829;28;20658;-69
2024/03/21 00:33:35;;;;;;;25.37;22.57;;;;;;;12.33;100.00;101703.47;6252658;28;20230;-68
2024/03/21 00:36:56;;;;;;;27.10;24.37;;;;;;;12.25;100.00;101710.47;6253186;28;20231;-68
2024/03/21 00:40:16;;;;;;;26.17;23.37;;;;;;;12.19;100.00;101705.59;6249745;28;20324;-68
2024/03/21 00:43:39;;;;;;;23.87;21.33;;;;;;;12.21;100.00;101706.31;6258739;28;20240;-68
2024/03/21 00:46:59;;;;;;;24.20;21.33;;;;;;;12.30;100.00;101708.28;6232768;28;20551;-67
2024/03/21 00:50:19;;;;;;;24.83;22.33;;;;;;;12.26;100.00;101701.41;6252854;28;20227;-67
2024/03/21 00:53:41;;;;;;;25.03;22.63;;;;;;;12.29;100.00;101701.13;6243772;28;20507;-67
2024/03/21 00:57:02;;;;;;;26.70;23.90;;;;;;;12.20;100.00;101701.91;6244516;28;20220;-67
2024/03/21 01:00:25;;;;;;;25.80;20.27;;;;;;;12.06;100.00;101697.63;6251896;28;20228;-67
2024/03/21 01:03:45;;;;;;;22.00;19.80;;;;;;;12.08;100.00;101701.06;6246474;28;20239;-66
2024/03/21 01:07:08;;;;;;;21.83;19.53;;;;;;;11.99;100.00;101691.03;6243152;28;20240;-67
2024/03/21 01:10:28;;;;;;;18.10;16.30;;;;;;;12.07;100.00;101683.13;6249146;28;20660;-67
2024/03/21 01:13:49;;;;;;;19.57;17.73;;;;;;;12.04;100.00;101681.53;6239261;28;20223;-67
2024/03/21 01:17:11;;;;;;;17.87;16.27;;;;;;;11.93;100.00;101694.22;6240793;28;20231;-67
2024/03/21 01:20:32;;;;;;;16.03;14.37;;;;;;;11.93;100.00;101680.72;6249868;28;20248;-68
2024/03/21 01:23:53;;;;;;;15.43;13.80;;;;;;;11.83;100.00;101672.47;6235446;28;20563;-68
2024/03/21 01:27:12;;;;;;;18.43;16.53;;;;;;;11.97;100.00;101674.91;6249289;28;20219;-68
2024/03/21 01:30:34;;;;;;;18.53;16.63;;;;;;;11.87;100.00;101667.69;6253731;28;20601;-68
2024/03/21 01:33:55;;;;;;;19.00;17.00;;;;;;;11.76;100.00;101662.31;6237294;28;20227;-68
2024/03/21 01:37:16;;;;;;;21.37;18.43;;;;;;;11.76;100.00;101663.19;6254515;28;20247;-68
2024/03/21 01:40:38;;;;;;;20.93;18.93;;;;;;;11.78;100.00;101661.22;6254729;28;20310;-67
2024/03/21 01:43:59;;;;;;;21.53;19.03;;;;;;;11.77;100.00;101658.59;6257980;28;20312;-68
2024/03/21 01:47:22;;;;;;;21.47;19.23;;;;;;;11.70;100.00;101655.53;6260006;28;20255;-67
2024/03/21 01:50:44;;;;;;;20.70;18.53;;;;;;;11.78;100.00;101657.63;6262343;28;20594;-67
2024/03/21 01:54:06;;;;;;;19.67;17.77;;;;;;;11.77;100.00;101645.97;6249583;28;20875;-66
2024/03/21 01:57:26;;;;;;;22.47;18.67;;;;;;;11.72;100.00;101648.16;6253562;28;20232;-68
2024/03/21 02:00:47;;;;;;;21.53;19.30;;;;;;;11.79;100.00;101646.69;6259551;28;20497;-68
2024/03/21 02:04:07;;;;;;;21.53;19.33;;;;;;;11.79;100.00;101637.72;6249770;28;20244;-68
2024/03/21 02:07:31;;;;;;;19.70;17.30;;;;;;;11.76;100.00;101644.25;6248436;28;20624;-68
2024/03/21 02:10:52;;;;;;;21.40;17.23;;;;;;;11.68;100.00;101638.59;6259216;28;20228;-67
2024/03/21 02:14:15;;;;;;;19.53;17.53;;;;;;;11.77;100.00;101623.50;6234645;28;20231;-68
2024/03/21 02:17:35;;;;;;;22.70;18.30;;;;;;;11.74;100.00;101638.13;6247375;28;20625;-66
2024/03/21 02:20:56;;;;;;;20.40;18.40;;;;;;;11.82;100.00;101629.38;6258479;28;20688;-67
2024/03/21 02:24:17;;;;;;;22.43;18.20;;;;;;;11.79;100.00;101632.31;6242227;28;20232;-68
2024/03/21 02:27:39;;;;;;;18.60;16.77;;;;;;;11.79;100.00;101632.31;6237431;28;20240;-68
2024/03/21 02:30:59;;;;;;;17.97;16.17;;;;;;;11.75;100.00;101637.13;6257261;28;20769;-68
2024/03/21 02:34:20;;;;;;;17.73;16.03;;;;;;;11.78;100.00;101641.44;6247912;28;20247;-68
2024/03/21 02:37:41;;;;;;;17.07;15.43;;;;;;;11.84;100.00;101640.94;6261426;28;20245;-67
2024/03/21 02:41:03;;;;;;;19.67;17.60;;;;;;;11.71;100.00;101629.41;6255081;28;20625;-68
2024/03/21 02:44:25;;;;;;;16.83;15.17;;;;;;;11.73;100.00;101628.28;6251695;28;20240;-68
2024/03/21 02:47:45;;;;;;;15.30;12.97;;;;;;;11.71;100.00;101624.00;6259768;28;20244;-68
2024/03/21 02:51:06;;;;;;;18.33;14.17;;;;;;;11.75;100.00;101612.81;6262097;28;20590;-67
2024/03/21 02:54:27;;;;;;;16.00;13.47;;;;;;;11.74;100.00;101610.25;6239520;28;20231;-69
2024/03/21 02:57:48;;;;;;;15.60;14.03;;;;;;;11.71;100.00;101619.47;6249490;28;20235;-67
2024/03/21 03:01:09;;;;;;;15.47;13.80;;;;;;;11.61;100.00;101601.41;6255055;28;20310;-67
2024/03/21 03:04:30;;;;;;;17.30;15.47;;;;;;;11.64;100.00;101606.56;6264531;28;20228;-69
2024/03/21 03:07:52;;;;;;;17.10;15.07;;;;;;;11.57;100.00;101598.09;6246551;28;20216;-68
2024/03/21 03:11:12;;;;;;;19.63;15.47;;;;;;;11.61;100.00;101606.78;6263642;28;20227;-68
2024/03/21 03:14:34;;;;;;;16.83;14.20;;;;;;;11.68;100.00;101603.50;6236345;28;20224;-68
2024/03/21 03:17:54;;;;;;;18.30;15.43;;;;;;;11.55;100.00;101616.25;6247620;28;20314;-68
2024/03/21 03:21:15;;;;;;;19.97;16.43;;;;;;;11.55;100.00;101626.19;6263899;28;20231;-67
2024/03/21 03:24:35;;;;;;;23.27;18.23;;;;;;;11.51;100.00;101631.00;6243628;28;20236;-68
2024/03/21 03:27:55;;;;;;;14.30;12.73;;;;;;;11.52;100.00;101624.59;6220003;28;20311;-69
2024/03/21 03:31:17;;;;;;;16.40;14.77;;;;;;;11.58;100.00;101631.34;6251544;28;20231;-67
2024/03/21 03:38:18;;;;;;;16.63;13.80;;;;;;;11.54;100.00;101637.97;6253743;28;20228;-69
2024/03/21 03:42:05;;;;;;;15.40;13.80;;;;;;;11.44;100.00;101635.16;6254014;28;20723;-68
2024/03/21 03:45:25;;;;;;;14.73;13.03;;;;;;;11.41;100.00;101637.25;6242329;28;20225;-68
2024/03/21 03:48:48;;;;;;;13.93;12.53;;;;;;;11.41;100.00;101634.56;6258837;28;20227;-68
2024/03/21 03:52:11;;;;;;;14.87;13.37;;;;;;;11.37;100.00;101620.41;6241521;28;20238;-69
2024/03/21 03:55:31;;;;;;;11.63;10.53;;;;;;;11.37;100.00;101623.13;6243252;28;20234;-69
2024/03/21 03:58:52;;;;;;;19.80;11.80;;;;;;;11.39;100.00;101625.72;6265028;28;20232;-68
2024/03/21 04:02:15;;;;;;;12.90;10.03;;;;;;;11.41;100.00;101612.97;6260316;28;20550;-67
2024/03/21 04:05:38;;;;;;;14.03;10.87;;;;;;;11.41;100.00;101605.69;6233676;28;20231;-68
2024/03/21 04:09:01;;;;;;;9.53;8.53;;;;;;;11.46;100.00;101619.69;6259323;28;20255;-67
2024/03/21 04:12:23;;;;;;;10.60;9.33;;;;;;;11.47;100.00;101621.44;6244569;28;20232;-68
2024/03/21 04:15:44;;;;;;;9.40;8.50;;;;;;;11.47;100.00;101615.16;6226286;28;20235;-68
2024/03/21 04:19:05;;;;;;;9.27;7.93;;;;;;;11.46;100.00;101608.91;6255114;28;20224;-68
2024/03/21 04:22:27;;;;;;;8.47;7.73;;;;;;;11.52;100.00;101602.13;6238660;28;20315;-68
2024/03/21 04:25:48;;;;;;;9.90;8.90;;;;;;;11.56;100.00;101609.00;6262494;28;20223;-68
2024/03/21 04:29:09;;;;;;;9.20;7.37;;;;;;;11.50;100.00;101606.78;6264925;28;20232;-68
2024/03/21 04:32:29;;;;;;;8.57;7.73;;;;;;;11.54;100.00;101610.97;6235122;28;20236;-68
2024/03/21 04:35:49;;;;;;;7.57;6.87;;;;;;;11.48;100.00;101600.66;6238332;28;20551;-67
2024/03/21 04:39:12;;;;;;;7.73;7.03;;;;;;;11.50;100.00;101598.69;6243682;28;20236;-68
2024/03/21 04:42:32;;;;;;;15.83;9.23;;;;;;;11.45;100.00;101587.44;6254526;28;20236;-68
2024/03/21 04:45:54;;;;;;;8.40;7.10;;;;;;;11.45;100.00;101599.09;6226907;28;20310;-68
2024/03/21 04:49:15;;;;;;;9.07;8.13;;;;;;;11.45;100.00;101609.03;6253717;28;20698;-68
2024/03/21 04:52:36;;;;;;;8.10;7.30;;;;;;;11.44;100.00;101604.59;6242297;28;20235;-68
2024/03/21 04:56:05;;;;;;;6.20;5.70;;;;;;;11.43;100.00;101600.19;6248321;28;20228;-68
2024/03/21 04:59:28;;;;;;;10.30;7.17;;;;;;;11.42;100.00;101607.44;6237154;28;20231;-67
2024/03/21 05:02:49;;;;;;;8.93;8.03;;;;;;;11.38;100.00;101614.06;6244411;28;20228;-69
2024/03/21 05:06:09;;;;;;;7.37;6.67;;;;;;;11.35;100.00;101606.19;6244239;28;20510;-68
2024/03/21 05:09:30;;;;;;;9.20;8.30;;;;;;;11.34;100.00;101606.31;6248407;28;20232;-67
2024/03/21 05:12:52;;;;;;;9.30;7.80;;;;;;;11.37;100.00;101615.03;6240318;28;20403;-67
2024/03/21 05:16:12;;;;;;;8.33;7.37;;;;;;;11.33;100.00;101602.75;6240648;28;20607;-67
2024/03/21 05:19:33;;;;;;;10.33;9.23;;;;;;;11.35;100.00;101595.41;6241939;28;20669;-67
2024/03/21 05:22:54;;;;;;;8.27;7.50;;;;;;;11.36;100.00;101589.03;6238523;28;20232;-68
2024/03/21 05:26:15;;;;;;;9.73;8.73;;;;;;;11.34;100.00;101596.41;6255221;28;20227;-67
2024/03/21 05:29:36;;;;;;;9.57;8.10;;;;;;;11.35;100.00;101581.06;6246967;28;20316;-68
2024/03/21 05:33:00;;;;;;;9.00;8.13;;;;;;;11.33;100.00;101589.25;6247986;28;20251;-68
2024/03/21 05:36:21;;;;;;;7.47;6.60;;;;;;;11.36;100.00;101585.47;6245439;28;21501;-68
2024/03/21 05:39:41;;;;;;;8.63;7.83;;;;;;;11.40;100.00;101584.22;6261325;28;20233;-68
2024/03/21 05:43:02;;;;;;;8.40;7.60;;;;;;;11.36;100.00;101586.31;6255029;28;20541;-67
2024/03/21 05:46:26;;;;;;;7.93;7.23;;;;;;;11.42;100.00;101584.97;6243807;28;20295;-68
2024/03/21 05:49:46;;;;;;;7.57;6.87;;;;;;;11.40;100.00;101582.41;6258828;28;20227;-68
2024/03/21 05:53:07;;;;;;;7.57;6.93;;;;;;;11.37;100.00;101600.69;6258878;28;20282;-67
2024/03/21 05:56:27;;;;;;;7.77;7.07;;;;;;;11.41;100.00;101603.00;6258753;28;20223;-67
2024/03/21 05:59:48;;;;;;;8.33;7.53;;;;;;;11.38;100.00;101613.19;6244284;28;20232;-69
2024/03/21 06:03:10;;;;;;;7.83;7.10;;;;;;;11.34;100.00;101604.50;6241815;28;20227;-68
2024/03/21 06:06:30;;;;;;;7.27;6.43;;;;;;;11.31;100.00;101603.84;6252791;28;20216;-68
2024/03/21 06:09:50;;;;;;;7.63;6.80;;;;;;;11.42;100.00;101611.97;6230884;28;20224;-68
2024/03/21 06:13:11;;;;;;;7.57;6.93;;;;;;;11.46;100.00;101617.00;6243706;28;20558;-68
2024/03/21 06:16:32;;;;;;;8.43;7.40;;;;;;;11.36;100.00;101634.06;6254373;28;20232;-67
2024/03/21 06:19:55;;;;;;;8.03;7.23;;;;;;;11.19;100.00;101649.75;6257177;28;20233;-68
2024/03/21 06:23:15;;;;;;;8.27;7.57;;;;;;;10.87;100.00;101645.16;6260594;28;20220;-69
2024/03/21 06:26:36;;;;;;;7.77;7.10;;;;;;;10.89;100.00;101645.91;6256957;28;20219;-68
2024/03/21 06:29:56;;;;;;;7.47;6.77;;;;;;;10.80;100.00;101655.56;6270328;28;20231;-68
2024/03/21 06:33:17;;;;;;;7.20;6.27;;;;;;;10.41;100.00;101667.56;6260363;28;20314;-69
2024/03/21 06:36:39;;;;;;;7.10;6.40;;;;;;;10.44;100.00;101664.63;6261935;28;20544;-68
2024/03/21 06:39:59;;;;;;;7.27;6.57;;;;;;;10.37;100.00;101671.44;6258469;28;20247;-69
2024/03/21 06:43:20;;;;;;;9.00;6.53;;;;;;;10.22;100.00;101669.06;6252725;28;20582;-68
2024/03/21 06:46:41;;;;;;;9.00;8.07;;;;;;;10.29;100.00;101678.38;6248459;28;21691;-68
2024/03/21 06:50:01;;;;;;;6.53;5.93;;;;;;;10.13;100.00;101683.22;6258134;28;20227;-68
2024/03/21 06:53:26;;;;;;;8.13;7.37;;;;;;;9.96;100.00;101678.16;6254452;28;20232;-68
2024/03/21 06:56:47;;;;;;;6.80;6.27;;;;;;;9.71;100.00;101672.84;6256540;28;20248;-68
2024/03/21 07:00:10;;;;;;;6.77;6.07;;;;;;;9.83;100.00;101677.34;6253322;28;20495;-69
2024/03/21 07:03:32;;;;;;;8.67;7.23;;;;;;;10.13;100.00;101675.13;6258787;28;20790;-68
2024/03/21 07:06:52;;;;;;;6.27;5.67;;;;;;;10.17;100.00;101680.19;6249466;28;20233;-67
2024/03/21 07:10:14;;;;;;;7.37;6.67;;;;;;;10.16;100.00;101677.56;6246641;28;20252;-68
2024/03/21 07:13:35;;;;;;;6.37;5.77;;;;;;;9.99;100.00;101680.66;6251385;28;20242;-69
2024/03/21 07:16:55;;;;;;;7.07;6.37;;;;;;;10.10;100.00;101678.00;6243934;28;20621;-68
2024/03/21 07:20:15;;;;;;;6.70;6.00;;;;;;;9.88;100.00;101692.19;6238333;28;20228;-68
2024/03/21 07:23:36;;;;;;;5.83;5.33;;;;;;;9.65;100.00;101688.50;6244361;28;20228;-69
2024/03/21 07:26:58;;;;;;;9.43;7.27;;;;;;;9.77;100.00;101694.81;6253117;28;20224;-68
2024/03/21 07:30:19;;;;;;;6.63;6.00;;;;;;;9.77;100.00;101694.81;6255181;28;20228;-68
2024/03/21 07:33:45;;;;;;;7.23;6.63;;;;;;;9.85;100.00;101702.31;6235492;28;20235;-69
2024/03/21 07:37:04;;;;;;;10.40;9.30;;;;;;;9.68;100.00;101697.31;6255930;28;20232;-68
2024/03/21 07:40:25;;;;;;;10.47;8.57;;;;;;;9.95;100.00;101706.91;6232077;28;21029;-68
2024/03/21 07:43:47;;;;;;;7.00;6.43;;;;;;;9.80;100.00;101717.97;6265226;28;20235;-68
2024/03/21 07:47:08;;;;;;;8.37;7.53;;;;;;;10.00;100.00;101714.69;6247868;28;20270;-68
2024/03/21 07:50:29;;;;;;;8.27;7.53;;;;;;;10.05;100.00;101729.56;6249614;28;20302;-69
2024/03/21 07:53:49;;;;;;;8.57;6.93;;;;;;;9.93;100.00;101722.34;6270157;28;20227;-68
2024/03/21 07:57:10;;;;;;;6.10;5.47;;;;;;;9.94;100.00;101723.22;6256851;28;20223;-69
2024/03/21 08:00:31;;;;;;;5.33;4.83;;;;;;;9.42;100.00;101745.78;6250966;28;20231;-68
2024/03/21 08:03:53;;;;;;;6.73;4.80;;;;;;;9.43;100.00;101743.94;6261597;28;20232;-69
2024/03/21 08:07:13;;;;;;;7.57;4.77;;;;;;;9.52;100.00;101756.75;6251225;28;20228;-68
2024/03/21 08:10:35;;;;;;;5.23;4.73;;;;;;;9.29;100.00;101750.28;6248052;28;20359;-69
2024/03/21 08:13:55;;;;;;;4.27;3.87;;;;;;;9.14;100.00;101763.91;6255994;28;20621;-68
2024/03/21 08:17:17;;;;;;;7.57;3.53;;;;;;;9.32;100.00;101774.31;6247908;28;20322;-68
2024/03/21 08:20:37;;;;;;;5.80;4.27;;;;;;;9.39;100.00;101777.41;6261910;28;20322;-69
2024/03/21 08:23:58;;;;;;;5.30;3.40;;;;;;;9.66;100.00;101778.16;6261453;28;20318;-68
2024/03/21 08:27:19;;;;;;;4.00;3.57;;;;;;;9.58;100.00;101777.84;6251950;28;20231;-68
2024/03/21 08:30:43;;;;;;;4.63;4.00;;;;;;;9.58;100.00;101777.84;6252463;28;20917;-69
2024/03/21 08:34:05;;;;;;;4.03;3.63;;;;;;;9.78;100.00;101776.44;6266191;28;20224;-68
2024/03/21 08:37:25;;;;;;;3.20;2.90;;;;;;;9.93;100.00;101776.19;6255554;28;20235;-69
2024/03/21 08:40:50;;;;;;;5.40;4.63;;;;;;;9.91;100.00;101788.09;6253304;28;20232;-69
2024/03/21 08:44:11;;;;;;;6.10;4.27;;;;;;;9.70;100.00;101787.75;6260986;28;20589;-68
2024/03/21 08:47:31;;;;;;;7.37;4.47;;;;;;;9.78;100.00;101798.88;6243433;28;20530;-68
2024/03/21 08:50:53;;;;;;;4.73;4.33;;;;;;;10.04;100.00;101810.44;6245642;28;20220;-69
2024/03/21 08:54:13;;;;;;;5.90;4.70;;;;;;;10.27;100.00;101807.00;6260987;28;20232;-68
2024/03/21 08:57:35;;;;;;;5.13;4.70;;;;;;;10.26;100.00;101816.06;6245663;28;20612;-69
2024/03/21 09:00:56;;;;;;;7.60;5.43;;;;;;;10.36;100.00;101820.69;6238724;28;20231;-69
2024/03/21 09:04:19;;;;;;;6.90;6.00;;;;;;;10.41;100.00;101829.28;6251120;28;20569;-70
2024/03/21 09:07:41;;;;;;;7.10;6.30;;;;;;;10.48;100.00;101837.78;6243026;28;20804;-70
2024/03/21 09:11:02;;;;;;;5.47;4.20;;;;;;;10.51;100.00;101852.88;6245762;28;20255;-68
2024/03/21 09:14:23;;;;;;;6.77;5.50;;;;;;;10.49;100.00;101855.69;6258692;28;20231;-69
2024/03/21 09:17:43;;;;;;;5.67;5.07;;;;;;;10.57;100.00;101861.38;6247998;28;20223;-69
2024/03/21 09:21:06;;;;;;;5.13;4.53;;;;;;;10.36;100.00;101873.72;6249241;28;20228;-68
2024/03/21 09:24:30;;;;;;;6.17;4.37;;;;;;;10.45;100.00;101876.59;6252846;28;20236;-68
2024/03/21 09:27:51;;;;;;;6.40;4.83;;;;;;;10.56;100.00;101893.84;6243540;28;20216;-68
2024/03/21 09:31:12;;;;;;;5.93;4.63;;;;;;;10.82;100.00;101882.88;6249643;28;20277;-69
2024/03/21 09:34:32;;;;;;;5.07;4.37;;;;;;;11.02;100.00;101890.34;6257984;28;20235;-69
2024/03/21 09:37:53;;;;;;;5.27;4.77;;;;;;;11.13;100.00;101894.94;6238098;28;20235;-69
2024/03/21 09:41:16;;;;;;;7.30;5.27;;;;;;;11.34;100.00;101895.16;6253429;28;20226;-69
2024/03/21 09:44:36;;;;;;;6.53;5.93;;;;;;;11.62;100.00;101892.94;6260673;28;20311;-69
2024/03/21 09:47:57;;;;;;;7.63;6.90;;;;;;;11.49;100.00;101888.63;6257282;28;20613;-68
2024/03/21 09:51:21;;;;;;;7.83;7.03;;;;;;;11.53;100.00;101900.91;6274257;28;20251;-69
2024/03/21 09:54:42;;;;;;;9.73;8.37;;;;;;;11.68;100.00;101892.50;6261367;28;20236;-68
2024/03/21 09:58:23;;;;;;;17.93;14.87;;;;;;;11.71;100.00;101899.50;6263209;28;20235;-69
2024/03/21 10:01:44;;;;;;;9.93;7.67;;;;;;;11.61;100.00;101901.16;6261887;28;20233;-68
2024/03/21 10:05:06;;;;;;;7.43;6.60;;;;;;;11.58;100.00;101907.66;6259156;28;20231;-68
2024/03/21 10:08:27;;;;;;;8.33;6.80;;;;;;;12.02;100.00;101906.94;6216962;28;20236;-69
2024/03/21 10:11:49;;;;;;;8.73;7.87;;;;;;;12.01;100.00;101911.50;6258019;28;20231;-69
2024/03/21 10:15:12;;;;;;;7.13;6.40;;;;;;;11.72;100.00;101915.59;6250842;28;20223;-68
2024/03/21 10:18:33;;;;;;;8.70;7.87;;;;;;;11.65;100.00;101925.13;6244853;28;20250;-69
2024/03/21 10:21:54;;;;;;;8.27;7.47;;;;;;;11.44;100.00;101937.56;6269010;28;20232;-69
2024/03/21 10:25:16;;;;;;;7.10;6.47;;;;;;;11.51;100.00;101937.97;6266431;28;20230;-69
2024/03/21 10:28:37;;;;;;;5.43;4.93;;;;;;;11.78;100.00;101936.75;6239153;28;20232;-69
2024/03/21 10:32:00;;;;;;;6.10;5.50;;;;;;;12.14;100.00;101933.00;6251678;28;20600;-69
2024/03/21 10:35:21;;;;;;;4.30;3.90;;;;;;;11.97;100.00;101925.38;6244571;28;20240;-69
2024/03/21 10:38:42;;;;;;;3.83;3.43;;;;;;;11.85;100.00;101934.41;6254968;28;20240;-68
2024/03/21 10:42:05;;;;;;;3.10;2.80;;;;;;;11.71;100.00;101943.59;6267271;28;20601;-69
2024/03/21 10:45:27;;;;;;;2.70;2.50;;;;;;;11.71;100.00;101949.00;6247174;28;20239;-69
2024/03/21 10:48:49;;;;;;;2.43;2.23;;;;;;;11.56;100.00;101954.66;6208101;28;20496;-69
2024/03/21 10:52:14;;;;;;;2.00;1.90;;;;;;;11.60;100.00;101957.00;6256712;28;20224;-69
2024/03/21 10:55:44;;;;;;;2.20;2.00;;;;;;;11.53;100.00;101988.19;6246197;28;20408;-69
2024/03/21 10:59:05;;;;;;;3.30;3.10;;;;;;;11.26;100.00;101991.06;6266942;28;20239;-69
2024/03/21 11:02:27;;;;;;;4.77;3.50;;;;;;;11.20;100.00;101998.78;6244852;28;20610;-68
2024/03/21 11:05:56;;;;;;;3.73;3.43;;;;;;;11.26;100.00;101999.19;6240620;28;20235;-68
2024/03/21 11:09:18;;;;;;;4.07;3.67;;;;;;;11.26;100.00;102006.44;6257915;28;20255;-69
2024/03/21 11:12:39;;;;;;;6.23;4.60;;;;;;;11.21;100.00;102014.88;6251811;28;20228;-68
2024/03/21 11:15:59;;;;;;;4.77;4.40;;;;;;;11.14;100.00;102024.38;6236676;28;20224;-69
2024/03/21 11:19:21;;;;;;;4.70;3.93;;;;;;;11.17;100.00;102021.47;6257300;28;20231;-69
2024/03/21 11:22:45;;;;;;;5.53;5.03;;;;;;;11.32;100.00;102040.19;6256991;28;20232;-68
2024/03/21 11:26:07;;;;;;;5.47;4.97;;;;;;;11.32;100.00;102042.91;6239833;28;20236;-68
2024/03/21 11:29:30;;;;;;;5.17;4.67;;;;;;;11.47;100.00;102052.59;6247247;28;20649;-69
2024/03/21 11:32:50;;;;;;;5.63;5.07;;;;;;;11.44;100.00;102044.69;6254594;28;20618;-69
2024/03/21 11:36:11;;;;;;;12.33;11.03;;;;;;;11.24;100.00;102044.31;6266223;28;21364;-68
2024/03/21 11:39:39;;;;;;;6.30;5.70;;;;;;;11.20;100.00;102050.06;6263737;28;20260;-69
2024/03/21 11:43:04;;;;;;;5.80;5.30;;;;;;;11.25;100.00;102056.84;6257613;28;20246;-69
2024/03/21 11:46:24;;;;;;;5.30;4.80;;;;;;;11.26;100.00;102065.81;6255958;28;20310;-68
2024/03/21 11:49:50;;;;;;;6.07;5.50;;;;;;;11.22;100.00;102070.56;6266815;28;20224;-67
2024/03/21 11:53:12;;;;;;;6.17;5.67;;;;;;;11.16;100.00;102065.59;6263361;28;21822;-68
2024/03/21 11:56:37;;;;;;;5.10;4.30;;;;;;;11.07;100.00;102073.50;6260971;28;20243;-68
2024/03/21 11:59:58;;;;;;;6.13;5.43;;;;;;;11.06;100.00;102083.44;6270703;28;20230;-68
2024/03/21 12:03:19;;;;;;;6.37;5.03;;;;;;;10.96;100.00;102090.47;6253845;28;20224;-70
2024/03/21 12:06:40;;;;;;;6.47;5.83;;;;;;;10.96;100.00;102090.47;6239557;28;20243;-69
2024/03/21 12:10:01;;;;;;;5.87;5.07;;;;;;;11.08;100.00;102086.88;6265377;28;20227;-68
2024/03/21 12:13:28;;;;;;;5.60;5.00;;;;;;;11.28;100.00;102091.69;6190638;28;20231;-69
2024/03/21 12:16:52;;;;;;;5.47;4.97;;;;;;;11.26;100.00;102087.41;6258286;28;20373;-68
2024/03/21 12:20:13;;;;;;;5.33;4.87;;;;;;;11.33;100.00;102095.94;6249124;28;20227;-68
2024/03/21 12:23:33;;;;;;;5.43;4.93;;;;;;;11.46;100.00;102094.91;6241726;28;20232;-69
2024/03/21 12:26:54;;;;;;;5.17;4.67;;;;;;;11.50;100.00;102112.63;6252491;28;20633;-69
2024/03/21 12:30:16;;;;;;;4.80;4.40;;;;;;;11.34;100.00;102124.63;6239223;28;20224;-68
2024/03/21 12:33:36;;;;;;;5.70;5.10;;;;;;;11.35;100.00;102126.38;6244467;28;20239;-69
2024/03/21 12:36:57;;;;;;;6.63;5.83;;;;;;;11.06;100.00;102141.94;6249267;28;20253;-68
2024/03/21 12:40:18;;;;;;;7.03;4.57;;;;;;;11.09;100.00;102145.31;6250394;28;20235;-69
2024/03/21 12:43:39;;;;;;;5.77;5.17;;;;;;;11.17;100.00;102144.75;6271148;28;20314;-68
2024/03/21 12:47:01;;;;;;;5.40;4.90;;;;;;;11.17;100.00;102151.00;6252702;28;20232;-69
2024/03/21 12:50:22;;;;;;;6.00;5.40;;;;;;;10.98;100.00;102147.00;6252183;28;20602;-68
2024/03/21 12:53:43;;;;;;;4.63;4.13;;;;;;;11.07;100.00;102152.66;6270509;28;20228;-69
2024/03/21 12:57:05;;;;;;;4.17;3.77;;;;;;;11.25;100.00;102156.72;6255388;28;20232;-69
2024/03/21 13:00:25;;;;;;;5.77;5.30;;;;;;;11.56;100.00;102160.78;6263837;28;20228;-69
2024/03/21 13:03:47;;;;;;;5.87;4.83;;;;;;;11.57;100.00;102165.22;6260137;28;20531;-69
2024/03/21 13:07:08;;;;;;;7.27;6.57;;;;;;;11.34;100.00;102154.34;6247420;28;20235;-69
2024/03/21 13:10:29;;;;;;;6.83;6.10;;;;;;;11.33;100.00;102156.16;6248123;28;20232;-69
2024/03/21 13:13:50;;;;;;;5.70;5.20;;;;;;;11.20;100.00;102161.56;6271706;28;20243;-68
2024/03/21 13:17:11;;;;;;;4.97;4.57;;;;;;;11.20;100.00;102166.13;6239138;28;20223;-69
2024/03/21 13:20:33;;;;;;;7.67;5.27;;;;;;;11.23;100.00;102166.78;6256144;28;20242;-69
2024/03/21 13:23:54;;;;;;;5.43;4.23;;;;;;;11.27;100.00;102168.28;6253265;28;20602;-68
2024/03/21 13:27:17;;;;;;;5.47;4.93;;;;;;;11.17;100.00;102169.03;6239652;28;20231;-68
2024/03/21 13:30:38;;;;;;;4.43;4.03;;;;;;;11.47;100.00;102172.28;6248955;28;20251;-68
2024/03/21 13:33:58;;;;;;;5.90;5.17;;;;;;;11.46;100.00;102167.81;6246339;28;20220;-68
2024/03/21 13:37:20;;;;;;;5.60;5.07;;;;;;;11.41;100.00;102171.84;6250406;28;20315;-68
2024/03/21 13:40:41;;;;;;;6.47;5.87;;;;;;;11.53;100.00;102170.94;6262247;28;20310;-69
2024/03/21 13:44:02;;;;;;;6.60;5.73;;;;;;;11.61;100.00;102164.03;6261649;28;20316;-69
2024/03/21 13:47:24;;;;;;;5.57;4.97;;;;;;;11.81;100.00;102158.06;6259099;28;21028;-68
2024/03/21 13:50:46;;;;;;;5.70;4.67;;;;;;;11.78;100.00;102152.03;6260711;28;20235;-68
2024/03/21 13:54:08;;;;;;;5.83;5.23;;;;;;;11.85;100.00;102158.69;6270306;28;20314;-69
2024/03/21 13:57:29;;;;;;;5.07;4.57;;;;;;;11.83;100.00;102156.09;6257849;28;20610;-69
2024/03/21 14:00:51;;;;;;;5.47;5.00;;;;;;;11.82;100.00;102145.41;6254083;28;20231;-69
2024/03/21 14:04:11;;;;;;;5.80;5.13;;;;;;;11.95;100.00;102141.69;6261504;28;20596;-69
2024/03/21 14:07:32;;;;;;;6.20;5.63;;;;;;;12.30;100.00;102140.88;6253379;28;20326;-68
2024/03/21 14:10:54;;;;;;;23.50;12.27;;;;;;;12.55;100.00;102138.03;6251242;28;20720;-68
2024/03/21 14:14:15;;;;;;;41.77;27.17;;;;;;;13.21;100.00;102121.06;6253468;28;20588;-69
2024/03/21 14:17:38;;;;;;;16.03;10.60;;;;;;;13.06;100.00;102122.31;6245731;28;20560;-70
2024/03/21 14:20:59;;;;;;;6.30;4.23;;;;;;;12.73;100.00;102123.06;6263989;28;20224;-69
2024/03/21 14:24:20;;;;;;;6.23;5.63;;;;;;;12.58;100.00;102133.25;6254821;28;20220;-69
2024/03/21 14:27:43;;;;;;;5.90;5.30;;;;;;;12.32;100.00;102130.81;6258986;28;21453;-69
2024/03/21 14:31:04;;;;;;;5.70;5.20;;;;;;;12.28;100.00;102137.44;6251278;28;20236;-68
2024/03/21 14:34:24;;;;;;;6.03;5.47;;;;;;;12.18;100.00;102131.88;6244338;28;20227;-69
2024/03/21 14:37:45;;;;;;;6.70;6.00;;;;;;;11.91;100.00;102140.19;6259257;28;20645;-68
2024/03/21 14:41:06;;;;;;;6.23;5.23;;;;;;;11.87;100.00;102140.50;6254688;28;20617;-68
2024/03/21 14:44:28;;;;;;;6.60;6.00;;;;;;;11.83;100.00;102137.19;6256729;28;20236;-68
2024/03/21 14:47:49;;;;;;;7.57;6.87;;;;;;;11.73;100.00;102149.66;6255164;28;20318;-69
2024/03/21 14:51:10;;;;;;;10.20;9.17;;;;;;;11.30;100.00;102150.13;6260858;28;20657;-69
2024/03/21 14:54:30;;;;;;;10.70;8.80;;;;;;;11.16;100.00;102153.78;6263211;28;20231;-69
2024/03/21 14:57:51;;;;;;;12.13;10.90;;;;;;;11.13;100.00;102151.34;6259562;28;20256;-69
2024/03/21 15:01:23;;;;;;;11.30;10.20;;;;;;;11.33;100.00;102141.84;6262928;28;20235;-69
2024/03/21 15:05:09;;;;;;;13.30;10.60;;;;;;;11.40;100.00;102127.78;6250581;28;20584;-68
2024/03/21 15:08:29;;;;;;;12.70;9.63;;;;;;;11.61;100.00;102137.03;6250199;28;20735;-69
2024/03/21 15:11:49;;;;;;;11.20;10.10;;;;;;;11.69;100.00;102144.59;6260742;23;20250;-69
2024/03/21 15:15:12;;;;;;;13.00;11.73;;;;;;;11.46;100.00;102137.25;6253444;28;20284;-69
2024/03/21 15:18:33;;;;;;;12.97;9.70;;;;;;;11.22;100.00;102143.44;6243557;28;20243;-69
2024/03/21 15:21:54;;;;;;;9.10;8.13;;;;;;;10.92;100.00;102148.31;6257249;28;20237;-69
2024/03/21 15:25:15;;;;;;;10.50;8.93;;;;;;;10.89;100.00;102156.59;6246308;28;20235;-69